Register | Login
Attackpoint - performance and training tools for orienteering athletes

Common Leg: 170 – 114

OCIN Flying Pig XXIV - 2022 Junior Nationals (Apr 2) - this leg is used on the following courses:

Combined splits

#
1. barrett 58 OCIN_FP2022_Saturday_Classic_2022-04-02_11_Blue
2. Danny Riley 1:02 +4 7% OCIN_FP2022_Saturday_Classic_2022-04-02_11_Blue
3. Glennnnn 1:05 +7 12% OCIN_FP2022_Saturday_Classic_2022-04-02_11_Blue
4. BigWillyStyle 1:09 +11 19% OCIN_FP2022_Saturday_Classic_2022-04-02_11_Blue
5. Ben Brady 1:11 +13 22% OCIN_FP2022_Saturday_Classic_2022-04-02_9_GreenC
6. inter_pro 1:13 +15 26% OCIN_FP2022_Saturday_Classic_2022-04-02_11_Blue
7. Aragorn 1:15 +17 29% OCIN_FP2022_Saturday_Classic_2022-04-02_11_Blue
7. Luke Menzie 1:15 +17 29% OCIN_FP2022_Saturday_Classic_2022-04-02_9_GreenC
9. Conner Malone 1:16 +18 31% OCIN_FP2022_Saturday_Classic_2022-04-02_9_GreenC
10. Maricel Olaru 1:19 +21 36% OCIN_FP2022_Saturday_Classic_2022-04-02_11_Blue
11. John Barrett 1:24 +26 45% OCIN_FP2022_Saturday_Classic_2022-04-02_11_Blue
11. Brenden Doogan 1:24 +26 45% OCIN_FP2022_Saturday_Classic_2022-04-02_9_GreenC
13. lily. 1:27 +29 50% OCIN_FP2022_Saturday_Classic_2022-04-02_9_GreenC
14. Lukas Lange 1:32 +34 59% OCIN_FP2022_Saturday_Classic_2022-04-02_9_GreenC
15. Tundra/Desert 1:33 +35 60% OCIN_FP2022_Saturday_Classic_2022-04-02_11_Blue
16. zsibthorp 1:34 +36 62% OCIN_FP2022_Saturday_Classic_2022-04-02_9_GreenC
16. rastridge 1:34 +36 62% OCIN_FP2022_Saturday_Classic_2022-04-02_9_GreenC
18. samanthaw 1:35 +37 64% OCIN_FP2022_Saturday_Classic_2022-04-02_3_OrangeA
18. Connor Martin 1:35 +37 64% OCIN_FP2022_Saturday_Classic_2022-04-02_9_GreenC
20. Josie Olson 1:36 +38 66% OCIN_FP2022_Saturday_Classic_2022-04-02_9_GreenC
21. Gabriel DeGracia 1:37 +39 67% OCIN_FP2022_Saturday_Classic_2022-04-02_9_GreenC
22. Mason Lotempio 1:38 +40 69% OCIN_FP2022_Saturday_Classic_2022-04-02_9_GreenC
23. Jim Benton 1:39 +41 71% OCIN_FP2022_Saturday_Classic_2022-04-02_11_Blue
23. Grace Suhocki 1:39 +41 71% OCIN_FP2022_Saturday_Classic_2022-04-02_9_GreenC
23. jeremycolgan 1:39 +41 71% OCIN_FP2022_Saturday_Classic_2022-04-02_11_Blue
26. cmpblla 1:40 +42 72% OCIN_FP2022_Saturday_Classic_2022-04-02_9_GreenC
26. jcolleran 1:40 +42 72% OCIN_FP2022_Saturday_Classic_2022-04-02_9_GreenC
26. Ian Dunlap 1:40 +42 72% OCIN_FP2022_Saturday_Classic_2022-04-02_3_OrangeA
26. annikamihata 1:40 +42 72% OCIN_FP2022_Saturday_Classic_2022-04-02_9_GreenC
30. MaxA 1:42 +44 76% OCIN_FP2022_Saturday_Classic_2022-04-02_9_GreenC
30. Greta Leonard 1:42 +44 76% OCIN_FP2022_Saturday_Classic_2022-04-02_3_OrangeA
30. gzoppi 1:42 +44 76% OCIN_FP2022_Saturday_Classic_2022-04-02_9_GreenC
33. Finley Miller 1:44 +46 79% OCIN_FP2022_Saturday_Classic_2022-04-02_9_GreenC
33. Ethan Adams 1:44 +46 79% OCIN_FP2022_Saturday_Classic_2022-04-02_3_OrangeA
35. Ella He Qiao 1:45 +47 81% OCIN_FP2022_Saturday_Classic_2022-04-02_3_OrangeA
35. Chelsea Colley 1:45 +47 81% OCIN_FP2022_Saturday_Classic_2022-04-02_3_OrangeA
35. Roman Colley 1:45 +47 81% OCIN_FP2022_Saturday_Classic_2022-04-02_9_GreenC
38. Jack Barkley 1:47 +49 84% OCIN_FP2022_Saturday_Classic_2022-04-02_9_GreenC
39. pgg 1:51 +53 91% OCIN_FP2022_Saturday_Classic_2022-04-02_11_Blue
40. Brett Barrows 1:52 +54 93% OCIN_FP2022_Saturday_Classic_2022-04-02_9_GreenC
41. Jordan Ditty 1:53 +55 95% OCIN_FP2022_Saturday_Classic_2022-04-02_3_OrangeA
42. Corrigan Railey 1:56 +58 100% OCIN_FP2022_Saturday_Classic_2022-04-02_9_GreenC
43. Salinda 1:57 +59 102% OCIN_FP2022_Saturday_Classic_2022-04-02_9_GreenC
43. Andrew Schwans 1:57 +59 102% OCIN_FP2022_Saturday_Classic_2022-04-02_3_OrangeA
45. Sandbo 1:58 +1:00 103% OCIN_FP2022_Saturday_Classic_2022-04-02_9_GreenC
46. Audrey Javadoff 2:08 +1:10 121% OCIN_FP2022_Saturday_Classic_2022-04-02_9_GreenC
47. Alex Bowles 2:09 +1:11 122% OCIN_FP2022_Saturday_Classic_2022-04-02_9_GreenC
48. Bethany Jablon 2:14 +1:16 131% OCIN_FP2022_Saturday_Classic_2022-04-02_9_GreenC
49. Antonya Kuzmis 2:18 +1:20 138% OCIN_FP2022_Saturday_Classic_2022-04-02_3_OrangeA
50. Paige 2:22 +1:24 145% OCIN_FP2022_Saturday_Classic_2022-04-02_3_OrangeA
50. Clara Sherwood 2:22 +1:24 145% OCIN_FP2022_Saturday_Classic_2022-04-02_3_OrangeA
52. Lydia Andrews 2:23 +1:25 147% OCIN_FP2022_Saturday_Classic_2022-04-02_3_OrangeA
53. Heidi Demarest 2:26 +1:28 152% OCIN_FP2022_Saturday_Classic_2022-04-02_3_OrangeA
54. Theresa Grissom 2:27 +1:29 153% OCIN_FP2022_Saturday_Classic_2022-04-02_3_OrangeA
55. Joshua Hamilton 2:31 +1:33 160% OCIN_FP2022_Saturday_Classic_2022-04-02_9_GreenC
56. syddixon 2:41 +1:43 178% OCIN_FP2022_Saturday_Classic_2022-04-02_3_OrangeA
57. Andrew Barry 2:56 +1:58 203% OCIN_FP2022_Saturday_Classic_2022-04-02_3_OrangeA
58. Yunhan Qiao 3:00 +2:02 210% OCIN_FP2022_Saturday_Classic_2022-04-02_3_OrangeA
59. Ellen Richey 3:17 +2:19 240% OCIN_FP2022_Saturday_Classic_2022-04-02_3_OrangeA
60. Christal Barnes 3:56 +2:58 307% OCIN_FP2022_Saturday_Classic_2022-04-02_3_OrangeA
61. Chloe H 4:00 +3:02 314% OCIN_FP2022_Saturday_Classic_2022-04-02_3_OrangeA
62. Trinity Stenger 7:57 +6:59 722% OCIN_FP2022_Saturday_Classic_2022-04-02_3_OrangeA
63. Zongqin Li 12:54 +11:56 1234% OCIN_FP2022_Saturday_Classic_2022-04-02_3_OrangeA
64. O-Dragon 13:55 +12:57 1340% OCIN_FP2022_Saturday_Classic_2022-04-02_3_OrangeA